Αρχική σελίδα
METAR-TAF:

METAR-TAF

Αεροδρόμια :

Rarotonga, Νήσοι Κουκ

γεωγραφικό πλάτος: 21-12S, γεωγραφικό μήκος: 159-49W, υψόμετρο: 7 μ

Παρών καιρός

Η αναφορά έγινε 1 ώρα και 2 λεπτά πριν, στις 03:00 UTC
Άνεμος 9 kt από ΝA
Θερμοκρασία 24°C
Υγρασία 61%
Πίεση 1015 hPa
Ορατότητα 10 χλμ και άνω
Λίγα νέφη σε ύψος 2500 πόδια

METAR: NCRG 180300Z 13009KT 9999 FEW025 24/16 Q1015

Χρόνος: 18:02 (04:02 UTC)

Πρόγνωση Καιρού

Η αναφορά έγινε 4 ώρες και 36 λεπτά πριν, στις 23:26 UTC
Η πρόγνωση ισχύει από τις 18 στις 00 UTC έως τις 18 στις 24 UTC
Άνεμος 8 kt από ΝA
Ορατότητα 10 χλμ και άνω
Διάσπαρτα νέφη σε ύψος 2200 πόδια
Διάσπαρτα νέφη σε ύψος 10000 πόδια

TAF: NCRG 172326Z 1800/1824 13008KT 9999 SCT022 SCT100

Μετεωρολογικές αναφορές και προγνώσεις για περισσότερα από 4000 αεροδρόμια (δελτία METAR και TAF).

Οι διαθέσιμοι σταθμοί απεικονίζονται στο χάρτη με κίτρινες και κόκκινες κουκκίδες.

Μετακινήστε το ποντίκι πάνω από τις κουκκίδες για να δείτε το όνομα του σταθμού.

Στη συνέχεια, κάντε κλικ για να δείτε τις μετεωρολογικές αναφορές και τις προγνώσεις καιρού.

Για να αλλάξετε το χάρτη: κάντε κλικ στα πράσινα κουμπιά με τον μαύρο σταυρό για να ζουμάρετε, στο πράσινο κουμπί με την παύλα για να αφαιρέσετε το ζουμ ή στα πράσινα βέλη για να αντιπαραβάλλετε χάρτες.


METAR-TAF: